Latest Coastal Weather Observations for Low Head

IDV60701

Issued at 12:21 pm EST Wednesday 31 August 2016 (issued every 10 minutes, with the page automatically refreshed every 10 minutes)

About coastal observations | Map of coastal stations | Coastal observations for VIC | Marine services | Other Formats
Station Details ID: 091293 Name: LOW HEAD Lat: -41.05 Lon: 146.79 Height: 3.0 m
Data from the previous 72 hours. | See also: Recent months at Low Head
Date/Time
EST
Temp
°C
Wind Pressure Rain since
9am
mm
Weather Cloud Vis
km
Sea
Height
m
Swell
Dir  Spd
kts
Gust
kts
hPa Trend Height
m
Period
s
Dir
31/12:00pm 13.2 WNW 7 9 1010.1 - 0.0 - - - - - - -
31/11:30am 12.8 WNW 11 13 1010.6 - 0.0 - - - - - - -
31/11:00am 12.8 NW 7 11 1010.7 - 0.0 - - - - - - -
31/10:30am 12.9 NW 9 10 1010.7 - 0.0 - - - - - - -
31/10:00am 13.3 WNW 6 7 1010.6 - 0.0 - - - - - - -
31/09:30am 12.9 NW 7 9 1010.8 - 0.0 - - - - - - -
31/09:00am 12.4 NW 9 10 1010.9 - 19.8 - - - - - - -
31/08:30am 12.4 NW 10 11 1011.0 - 19.8 - - - - - - -
31/08:00am 12.4 NNW 9 11 1010.7 - 19.8 - - - - - - -
31/07:30am 12.3 NNW 10 11 1010.5 - 19.8 - - - - - - -
31/07:00am 12.3 N 12 13 1010.4 - 19.8 - - - - - - -
31/06:30am 12.2 N 12 14 1010.3 - 19.8 - - - - - - -
31/06:00am 12.1 N 9 11 1010.1 - 19.8 - - - - - - -
31/05:30am 12.1 N 12 14 1010.2 - 19.8 - - - - - - -
31/05:00am 11.9 N 11 13 1010.1 - 19.8 - - - - - - -
31/04:30am 11.9 N 13 15 1010.3 - 19.6 - - - - - - -
31/04:00am 11.9 NNE 11 14 1010.8 - 19.4 - - - - - - -
31/03:30am 11.7 NE 15 18 1011.1 - 18.8 - - - - - - -
31/03:00am 11.7 ENE 16 18 1011.2 - 17.8 Rain - - - - - -
31/02:30am 11.7 NE 15 18 1011.8 - 16.8 - - - - - - -
31/02:00am 11.6 NE 17 19 1012.4 - 15.8 - - - - - - -
31/01:30am 11.7 NE 17 19 1012.8 - 14.0 - - - - - - -
31/01:00am 11.5 ENE 17 20 1013.1 - 11.6 - - - - - - -
31/12:30am 11.4 ENE 13 14 1013.6 - 10.4 - - - - - - -
31/12:00am 11.2 ENE 10 12 1014.0 - 9.0 Rain - - - - - -
 
Date/Time
EST
Temp
°C
Wind Pressure Rain since
9am
mm
Weather Cloud Vis
km
Sea
Height
m
Swell
Dir  Spd
kts
Gust
kts
hPa Trend Height
m
Period
s
Dir
30/11:30pm 10.5 E 7 9 1014.1 - 7.6 - - - - - - -
30/11:00pm 10.6 E 7 9 1014.6 - 6.0 - - - - - - -
30/10:30pm 10.9 ENE 8 12 1014.9 - 4.0 - - - - - - -
30/10:00pm 10.8 NE 11 13 1015.2 - 3.6 - - - - - - -
30/09:30pm 11.3 NE 13 15 1015.5 - 2.2 - - - - - - -
30/09:00pm 11.8 ENE 13 15 1015.6 - 1.6 Rain - - - - - -
30/08:30pm 11.9 ENE 11 12 1016.1 - 0.8 - - - - - - -
30/08:00pm 12.0 ENE 12 14 1015.9 - 0.2 - - - - - - -
30/07:30pm 12.2 ENE 13 15 1016.1 - 0.2 - - - - - - -
30/07:00pm 12.3 ENE 14 16 1016.4 - 0.0 - - - - - - -
30/06:30pm 12.4 ENE 15 18 1016.5 - 0.0 - - - - - - -
30/06:00pm 12.6 NE 16 18 1016.6 - 0.0 - - - - - - -
30/05:30pm 13.0 ENE 20 22 1016.5 - 0.0 - - - - - - -
30/05:00pm 13.3 ENE 16 19 1016.5 - 0.0 - - - - - - -
30/04:30pm 13.5 ENE 18 21 1016.8 - 0.0 - - - - - - -
30/04:00pm 13.9 ENE 18 21 1017.0 - 0.0 - - - - - - -
30/03:30pm 13.8 ENE 19 21 1017.7 - 0.0 - - - - - - -
30/03:00pm 14.0 ENE 19 22 1018.1 - 0.0 - - - - - - -
30/02:30pm 14.2 ENE 19 22 1018.5 - 0.0 - - - - - - -
30/02:00pm 14.8 ENE 19 23 1018.6 - 0.0 - - - - - - -
30/01:30pm 14.7 ENE 18 22 1018.7 - 0.0 - - - - - - -
30/01:00pm 14.7 ENE 19 24 1019.2 - 0.0 - - - - - - -
30/12:30pm 14.4 ENE 16 20 1019.5 - 0.0 - - - - - - -
30/12:00pm 12.2 SSE 8 11 1020.1 - 0.0 - - - - - - -
30/11:30am 11.2 SSE 9 12 1020.9 - 0.0 - - - - - - -
30/11:00am 10.9 SSE 11 15 1021.2 - 0.0 - - - - - - -
30/10:30am 10.3 SSE 13 16 1021.9 - 0.0 - - - - - - -
30/10:00am 9.7 SSE 15 18 1022.3 - 0.0 - - - - - - -
30/09:30am 8.7 SSE 15 19 1022.6 - 0.0 - - - - - - -
30/09:00am 7.4 SSE 17 19 1023.1 - 0.0 - - - - - - -
30/08:30am 6.7 SSE 15 18 1023.6 - 0.0 - - - - - - -
30/08:00am 6.3 SSE 14 17 1023.9 - 0.0 - - - - - - -
30/07:30am 5.7 SSE 13 16 1023.6 - 0.0 - - - - - - -
30/07:00am 5.5 SSE 13 16 1023.7 - 0.0 - - - - - - -
30/06:30am 5.0 SSE 12 15 1023.7 - 0.0 - - - - - - -
30/06:00am 5.1 SSE 13 15 1023.9 - 0.0 - - - - - - -
30/05:30am 5.2 SSE 12 15 1023.9 - 0.0 - - - - - - -
30/05:00am 5.1 SSE 10 13 1024.0 - 0.0 - - - - - - -
30/04:30am 5.6 SSE 11 13 1024.2 - 0.0 - - - - - - -
30/04:00am 5.9 SSE 10 12 1023.9 - 0.0 - - - - - - -
30/03:30am 5.6 SSE 10 12 1023.4 - 0.0 - - - - - - -
30/03:00am 5.8 SSE 9 11 1023.7 - 0.0 - - - - - - -
30/02:30am 6.2 SSE 8 9 1023.8 - 0.0 - - - - - - -
30/02:00am 6.1 SSE 9 11 1024.1 - 0.0 - - - - - - -
30/01:30am 6.1 SSE 10 11 1024.3 - 0.0 - - - - - - -
30/01:00am 6.0 SSE 9 10 1024.8 - 0.0 - - - - - - -
30/12:30am 6.1 SSE 9 10 1025.0 - 0.0 - - - - - - -
30/12:00am 6.2 SSE 9 11 1025.1 - 0.0 - - - - - - -
 
Date/Time
EST
Temp
°C
Wind Pressure Rain since
9am
mm
Weather Cloud Vis
km
Sea
Height
m
Swell
Dir  Spd
kts
Gust
kts
hPa Trend Height
m
Period
s
Dir
29/11:30pm 6.0 SSE 9 11 1024.9 - 0.0 - - - - - - -
29/11:00pm 6.1 SSE 9 10 1025.0 - 0.0 - - - - - - -
29/10:30pm 6.5 SSE 8 9 1024.9 - 0.0 - - - - - - -
29/10:00pm 6.6 SSE 7 8 1025.1 - 0.0 - - - - - - -
29/09:30pm 6.8 SSE 8 9 1024.8 - 0.0 - - - - - - -
29/09:00pm 7.5 SSE 6 7 1024.7 - 0.0 - - - - - - -
29/08:30pm 7.6 SE 6 7 1024.5 - 0.0 - - - - - - -
29/08:00pm 8.0 ESE 7 8 1024.5 - 0.0 - - - - - - -
29/07:30pm 8.3 ESE 6 7 1024.2 - 0.0 - - - - - - -
29/07:00pm 9.2 ENE 2 5 1024.1 - 0.0 - - - - - - -
29/06:30pm 10.1 NNE 2 4 1024.0 - 0.0 - - - - - - -
29/06:00pm 10.2 CALM 0 0 1023.7 - 0.0 - - - - - - -
29/05:30pm 10.1 CALM 0 0 1023.5 - 0.0 - - - - - - -
29/05:00pm 10.6 NNW 4 5 1023.5 - 0.0 - - - - - - -
29/04:30pm 11.1 NNW 5 7 1023.4 - 0.0 - - - - - - -
29/04:00pm 11.8 NW 5 6 1023.2 - 0.0 - - - - - - -
29/03:30pm 11.5 NNW 5 7 1023.1 - 0.0 - - - - - - -
29/03:00pm 12.1 WNW 5 6 1023.0 - 0.0 - - - - - - -
29/02:30pm 12.0 NW 5 6 1023.2 - 0.0 - - - - - - -
29/02:00pm 11.7 NNW 7 8 1023.3 - 0.0 - - - - - - -
29/01:30pm 11.5 N 7 8 1023.5 - 0.0 - - - - - - -
29/01:00pm 10.8 N 9 10 1023.7 - 0.0 - - - - - - -
29/12:30pm 11.1 N 6 7 1023.9 - 0.0 - - - - - - -
29/12:00pm 10.9 WSW 3 5 1024.2 - 0.0 - - - - - - -
29/11:30am 9.8 S 6 7 1024.1 - 0.0 - - - - - - -
29/11:00am 8.6 S 7 8 1024.5 - 0.0 - - - - - - -
29/10:30am 7.9 S 8 9 1024.7 - 0.0 - - - - - - -
29/10:00am 7.4 S 9 11 1024.9 - 0.0 - - - - - - -
29/09:30am 6.6 SSE 9 10 1024.9 - 0.0 - - - - - - -
29/09:00am 5.9 SSE 11 13 1024.7 - 0.0 - - - - - - -
29/08:30am 5.1 SSE 10 13 1024.7 - 0.0 - - - - - - -
29/08:00am 4.2 SSE 9 12 1024.5 - 0.0 - - - - - - -
29/07:30am 3.5 SSE 11 14 1024.0 - 0.0 - - - - - - -
29/07:00am 3.5 SSE 12 15 1023.5 - 0.0 - - - - - - -
29/06:30am 3.4 SSE 10 12 1023.2 - 0.0 - - - - - - -
29/06:00am 4.0 SSE 11 13 1022.8 - 0.0 - - - - - - -
29/05:30am 3.8 SSE 9 11 1022.7 - 0.0 - - - - - - -
29/05:00am 4.5 S 9 11 1022.3 - 0.0 - - - - - - -
29/04:30am 3.9 SSE 9 10 1022.0 - 0.0 - - - - - - -
29/04:00am 3.8 SSE 8 11 1021.7 - 0.0 - - - - - - -
29/03:30am 4.3 SSE 9 11 1021.6 - 0.0 - - - - - - -
29/03:00am 4.3 SSE 10 12 1021.6 - 0.0 - - - - - - -
29/02:30am 4.4 SSE 9 11 1021.7 - 0.0 - - - - - - -
29/02:00am 4.5 SSE 8 9 1021.9 - 0.0 - - - - - - -
29/01:30am 4.5 SSE 8 9 1021.7 - 0.0 - - - - - - -
29/01:00am 4.5 SSE 8 8 1021.5 - 0.0 - - - - - - -
29/12:30am 5.3 SSE 4 6 1021.5 - 0.0 - - - - - - -
29/12:00am 5.3 SE 6 7 1021.2 - 0.0 - - - - - - -
 
Date/Time
EST
Temp
°C
Wind Pressure Rain since
9am
mm
Weather Cloud Vis
km
Sea
Height
m
Swell
Dir  Spd
kts
Gust
kts
hPa Trend Height
m
Period
s
Dir
28/11:30pm 6.0 SSE 6 7 1021.0 - 0.0 - - - - - - -
28/11:00pm 7.8 S 5 6 1020.9 - 0.0 - - - - - - -
28/10:30pm 9.0 SW 5 6 1020.8 - 0.0 - - - - - - -
28/10:00pm 9.2 WSW 5 6 1020.6 - 0.0 - - - - - - -
28/09:30pm 9.4 W 6 7 1020.5 - 0.0 - - - - - - -
28/09:00pm 9.6 WSW 6 7 1020.2 - 0.0 - - - - - - -
28/08:30pm 10.1 WSW 7 9 1019.8 - 0.0 - - - - - - -
28/08:00pm 10.2 WSW 9 9 1019.3 - 0.0 - - - - - - -
28/07:30pm 10.7 WNW 11 14 1019.2 - 0.0 - - - - - - -
28/07:00pm 10.8 WNW 14 16 1019.1 - 0.0 - - - - - - -
28/06:30pm 10.7 WNW 13 15 1018.9 - 0.0 - - - - - - -
28/06:00pm 10.7 WNW 13 15 1018.5 - 0.0 - - - - - - -
28/05:30pm 10.6 WNW 13 15 1018.3 - 0.0 - - - - - - -
28/05:00pm 11.1 WNW 15 17 1017.9 - 0.0 - - - - - - -
28/04:30pm 11.4 WNW 16 18 1017.7 - 0.0 - - - - - - -
28/04:00pm 11.6 WNW 17 19 1017.5 - 0.0 - - - - - - -
28/03:30pm 11.7 W 15 17 1017.4 - 0.0 - - - - - - -
28/03:00pm 11.6 W 16 18 1017.5 - 0.0 - - - - - - -
28/02:30pm 11.7 WNW 16 18 1017.3 - 0.0 - - - - - - -
28/02:00pm 12.0 WNW 14 16 1017.3 - 0.0 - - - - - - -
28/01:30pm 11.6 WNW 15 16 1017.2 - 0.0 - - - - - - -
28/01:00pm 11.4 W 14 17 1017.2 - 0.0 - - - - - - -
28/12:30pm 11.1 W 15 18 1017.5 - 0.0 - - - - - - -

Other Formats:

Comma delimited format used in spreadsheet applications
http://www.bom.gov.au/fwo/IDV60701/IDV60701.95964.axf

JavaScript Object Notation format (JSON) in row-major order
http://www.bom.gov.au/fwo/IDV60701/IDV60701.95964.json